Time,TemperatureF,DewpointF,PressureIn,WindDirection,WindDirectionDegrees,WindSpeedMPH,WindSpeedGustMPH,Humidity,HourlyPrecipIn,Conditions,Clouds,dailyrainin,SoftwareType,DateUTC
2013-05-02 00:03:00,47.0,40.0,-100.00,West,280,1.0,3.0,77,-99.99,,,-99.99,,2013-05-02 04:03:00,
2013-05-02 00:12:00,47.0,40.0,-100.00,West,270,2.0,6.0,78,-99.99,,,-99.99,,2013-05-02 04:12:00,
2013-05-02 00:23:00,46.0,40.0,-100.00,NW,315,1.0,3.0,80,-99.99,,,-99.99,,2013-05-02 04:23:00,
2013-05-02 00:33:00,46.0,40.0,-100.00,NNE,25,1.0,3.0,81,-99.99,,,-99.99,,2013-05-02 04:33:00,
2013-05-02 00:43:00,45.0,40.0,-100.00,South,190,0.0,2.0,82,-99.99,,,-99.99,,2013-05-02 04:43:00,
2013-05-02 00:52:00,45.0,40.0,-100.00,South,190,0.0,2.0,82,-99.99,,,-99.99,,2013-05-02 04:52:00,
2013-05-02 01:02:00,44.0,40.0,-100.00,West,260,1.0,2.0,85,-99.99,,,-99.99,,2013-05-02 05:02:00,
2013-05-02 01:12:00,44.0,40.0,-100.00,South,175,0.0,2.0,86,-99.99,,,-99.99,,2013-05-02 05:12:00,
2013-05-02 01:22:00,44.0,40.0,-100.00,NE,45,0.0,1.0,87,-99.99,,,-99.99,,2013-05-02 05:22:00,
2013-05-02 01:32:00,44.0,40.0,-100.00,SW,225,0.0,5.0,87,-99.99,,,-99.99,,2013-05-02 05:32:00,
2013-05-02 01:42:00,44.0,40.0,-100.00,WSW,250,1.0,2.0,88,-99.99,,,-99.99,,2013-05-02 05:42:00,
2013-05-02 01:52:00,43.0,40.0,-100.00,West,270,2.0,3.0,88,-99.99,,,-99.99,,2013-05-02 05:52:00,
2013-05-02 02:01:00,43.0,40.0,-100.00,ESE,105,0.0,3.0,88,-99.99,,,-99.99,,2013-05-02 06:01:00,
2013-05-02 02:12:00,43.0,39.0,-100.00,WNW,295,0.0,2.0,88,-99.99,,,-99.99,,2013-05-02 06:12:00,
2013-05-02 02:22:00,42.0,40.0,-100.00,ESE,105,0.0,1.0,90,-99.99,,,-99.99,,2013-05-02 06:22:00,
2013-05-02 02:32:00,42.0,40.0,-100.00,ESE,105,0.0,1.0,90,-99.99,,,-99.99,,2013-05-02 06:32:00,
2013-05-02 02:42:00,42.0,39.0,-100.00,North,355,1.0,2.0,90,-99.99,,,-99.99,,2013-05-02 06:42:00,
2013-05-02 02:52:00,41.0,39.0,-100.00,West,275,1.0,2.0,91,-99.99,,,-99.99,,2013-05-02 06:52:00,
2013-05-02 03:02:00,41.0,38.0,-100.00,SSE,150,0.0,1.0,91,-99.99,,,-99.99,,2013-05-02 07:02:00,
2013-05-02 03:11:00,41.0,39.0,-100.00,East,90,0.0,1.0,91,-99.99,,,-99.99,,2013-05-02 07:11:00,
2013-05-02 03:21:00,41.0,39.0,-100.00,ENE,65,1.0,2.0,91,-99.99,,,-99.99,,2013-05-02 07:21:00,
2013-05-02 03:32:00,41.0,39.0,-100.00,ENE,65,1.0,2.0,91,-99.99,,,-99.99,,2013-05-02 07:32:00,
2013-05-02 03:42:00,40.0,38.0,-100.00,SW,230,0.0,2.0,93,-99.99,,,-99.99,,2013-05-02 07:42:00,
2013-05-02 03:52:00,41.0,39.0,-100.00,West,265,1.0,3.0,93,-99.99,,,-99.99,,2013-05-02 07:52:00,
2013-05-02 04:02:00,41.0,39.0,-100.00,SSW,200,0.0,1.0,93,-99.99,,,-99.99,,2013-05-02 08:02:00,
2013-05-02 04:11:00,41.0,39.0,-100.00,West,265,1.0,3.0,93,-99.99,,,-99.99,,2013-05-02 08:11:00,
2013-05-02 04:22:00,40.0,39.0,-100.00,West,275,2.0,6.0,93,-99.99,,,-99.99,,2013-05-02 08:22:00,
2013-05-02 04:32:00,40.0,39.0,-100.00,SSW,210,1.0,5.0,93,-99.99,,,-99.99,,2013-05-02 08:32:00,
2013-05-02 04:42:00,40.0,38.0,-100.00,East,85,0.0,2.0,93,-99.99,,,-99.99,,2013-05-02 08:42:00,
2013-05-02 04:52:00,40.0,38.0,-100.00,West,270,2.0,3.0,93,-99.99,,,-99.99,,2013-05-02 08:52:00,
2013-05-02 05:02:00,40.0,38.0,-100.00,WSW,255,2.0,5.0,93,-99.99,,,-99.99,,2013-05-02 09:02:00,
2013-05-02 05:12:00,40.0,38.0,-100.00,West,280,2.0,7.0,93,-99.99,,,-99.99,,2013-05-02 09:12:00,
2013-05-02 05:22:00,40.0,38.0,-100.00,WSW,245,1.0,5.0,93,-99.99,,,-99.99,,2013-05-02 09:22:00,
2013-05-02 05:33:00,40.0,38.0,-100.00,WSW,255,1.0,5.0,93,-99.99,,,-99.99,,2013-05-02 09:33:00,
2013-05-02 05:42:00,40.0,38.0,-100.00,West,265,2.0,6.0,93,-99.99,,,-99.99,,2013-05-02 09:42:00,
2013-05-02 05:52:00,40.0,38.0,-100.00,SW,230,2.0,7.0,93,-99.99,,,-99.99,,2013-05-02 09:52:00,
2013-05-02 06:03:00,40.0,38.0,-100.00,West,265,5.0,7.0,93,-99.99,,,-99.99,,2013-05-02 10:03:00,
2013-05-02 06:12:00,40.0,39.0,-100.00,West,265,3.0,8.0,93,-99.99,,,-99.99,,2013-05-02 10:12:00,
2013-05-02 06:23:00,41.0,39.0,-100.00,West,260,2.0,7.0,93,-99.99,,,-99.99,,2013-05-02 10:23:00,
2013-05-02 06:33:00,41.0,39.0,-100.00,West,260,6.0,10.0,93,-99.99,,,-99.99,,2013-05-02 10:33:00,
2013-05-02 06:42:00,41.0,39.0,-100.00,West,270,3.0,10.0,92,-99.99,,,-99.99,,2013-05-02 10:42:00,
2013-05-02 06:52:00,41.0,39.0,-100.00,West,270,3.0,10.0,92,-99.99,,,-99.99,,2013-05-02 10:52:00,
2013-05-02 07:02:00,41.0,39.0,-100.00,WNW,285,2.0,7.0,91,-99.99,,,-99.99,,2013-05-02 11:02:00,
2013-05-02 07:12:00,43.0,40.0,-100.00,West,260,3.0,8.0,92,-99.99,,,-99.99,,2013-05-02 11:12:00,
2013-05-02 07:22:00,44.0,41.0,-100.00,West,280,2.0,7.0,92,-99.99,,,-99.99,,2013-05-02 11:22:00,
2013-05-02 07:32:00,44.0,42.0,-100.00,West,270,3.0,8.0,90,-99.99,,,-99.99,,2013-05-02 11:32:00,
2013-05-02 07:42:00,44.0,41.0,-100.00,South,185,1.0,5.0,90,-99.99,,,-99.99,,2013-05-02 11:42:00,
2013-05-02 07:52:00,46.0,43.0,-100.00,West,270,1.0,5.0,91,-99.99,,,-99.99,,2013-05-02 11:52:00,
2013-05-02 08:01:00,47.0,44.0,-100.00,SSW,205,1.0,6.0,90,-99.99,,,-99.99,,2013-05-02 12:01:00,
2013-05-02 08:12:00,48.0,46.0,-100.00,SSW,205,1.0,2.0,90,-99.99,,,-99.99,,2013-05-02 12:12:00,
2013-05-02 08:22:00,51.0,47.0,-100.00,SSW,200,2.0,3.0,88,-99.99,,,-99.99,,2013-05-02 12:22:00,
2013-05-02 08:32:00,51.0,47.0,-100.00,SSW,200,2.0,3.0,88,-99.99,,,-99.99,,2013-05-02 12:32:00,
2013-05-02 08:42:00,55.0,47.0,-100.00,SSW,210,2.0,5.0,74,-99.99,,,-99.99,,2013-05-02 12:42:00,
2013-05-02 08:52:00,56.0,46.0,-100.00,SSW,210,3.0,5.0,70,-99.99,,,-99.99,,2013-05-02 12:52:00,
2013-05-02 09:01:00,57.0,47.0,-100.00,SSW,205,3.0,6.0,68,-99.99,,,-99.99,,2013-05-02 13:01:00,
2013-05-02 09:11:00,58.0,47.0,-100.00,SSW,205,2.0,5.0,65,-99.99,,,-99.99,,2013-05-02 13:11:00,
2013-05-02 09:22:00,58.0,45.0,-100.00,SSW,205,3.0,6.0,61,-99.99,,,-99.99,,2013-05-02 13:22:00,
2013-05-02 09:32:00,59.0,45.0,-100.00,SW,230,3.0,6.0,59,-99.99,,,-99.99,,2013-05-02 13:32:00,
2013-05-02 09:42:00,62.0,46.0,-100.00,East,90,1.0,3.0,56,-99.99,,,-99.99,,2013-05-02 13:42:00,
2013-05-02 09:52:00,63.0,45.0,-100.00,SSW,195,3.0,5.0,52,-99.99,,,-99.99,,2013-05-02 13:52:00,
2013-05-02 10:02:00,63.0,44.0,-100.00,SW,215,2.0,6.0,50,-99.99,,,-99.99,,2013-05-02 14:02:00,
2013-05-02 10:11:00,64.0,37.0,-100.00,SSW,195,3.0,7.0,36,-99.99,,,-99.99,,2013-05-02 14:11:00,
2013-05-02 10:22:00,65.0,40.0,-100.00,SSW,205,3.0,7.0,39,-99.99,,,-99.99,,2013-05-02 14:22:00,
2013-05-02 10:32:00,67.0,41.0,-100.00,South,170,2.0,6.0,39,-99.99,,,-99.99,,2013-05-02 14:32:00,
2013-05-02 10:43:00,66.0,42.0,-100.00,WSW,245,2.0,7.0,41,-99.99,,,-99.99,,2013-05-02 14:43:00,
2013-05-02 10:52:00,68.0,41.0,-100.00,South,180,2.0,6.0,38,-99.99,,,-99.99,,2013-05-02 14:52:00,
2013-05-02 11:02:00,68.0,41.0,-100.00,SSE,155,2.0,8.0,38,-99.99,,,-99.99,,2013-05-02 15:02:00,
2013-05-02 11:12:00,67.0,42.0,-100.00,SW,230,2.0,10.0,40,-99.99,,,-99.99,,2013-05-02 15:12:00,
2013-05-02 11:22:00,70.0,42.0,-100.00,South,170,1.0,6.0,36,-99.99,,,-99.99,,2013-05-02 15:22:00,
2013-05-02 11:33:00,70.0,43.0,-100.00,West,260,2.0,5.0,37,-99.99,,,-99.99,,2013-05-02 15:33:00,
2013-05-02 11:43:00,70.0,41.0,-100.00,WNW,285,2.0,6.0,35,-99.99,,,-99.99,,2013-05-02 15:43:00,
2013-05-02 12:03:00,71.0,40.0,-100.00,SSE,150,5.0,7.0,33,-99.99,,,-99.99,,2013-05-02 16:03:00,
2013-05-02 12:13:00,71.0,41.0,-100.00,West,260,1.0,9.0,33,-99.99,,,-99.99,,2013-05-02 16:13:00,
2013-05-02 12:23:00,71.0,40.0,-100.00,SSW,205,3.0,7.0,32,-99.99,,,-99.99,,2013-05-02 16:23:00,
2013-05-02 12:32:00,71.0,42.0,-100.00,SW,215,6.0,8.0,34,-99.99,,,-99.99,,2013-05-02 16:32:00,
2013-05-02 12:43:00,72.0,42.0,-100.00,South,185,2.0,9.0,33,-99.99,,,-99.99,,2013-05-02 16:43:00,
2013-05-02 12:52:00,72.0,42.0,-100.00,South,185,2.0,9.0,33,-99.99,,,-99.99,,2013-05-02 16:52:00,
2013-05-02 13:02:00,72.0,40.0,-100.00,SW,225,5.0,10.0,32,-99.99,,,-99.99,,2013-05-02 17:02:00,
2013-05-02 13:12:00,74.0,41.0,-100.00,WNW,290,6.0,12.0,31,-99.99,,,-99.99,,2013-05-02 17:12:00,
2013-05-02 13:22:00,74.0,40.0,-100.00,West,275,1.0,8.0,29,-99.99,,,-99.99,,2013-05-02 17:22:00,
2013-05-02 13:32:00,77.0,40.0,-100.00,North,5,5.0,12.0,27,-99.99,,,-99.99,,2013-05-02 17:32:00,
2013-05-02 13:42:00,75.0,37.0,-100.00,ENE,75,6.0,14.0,26,-99.99,,,-99.99,,2013-05-02 17:42:00,
2013-05-02 13:52:00,75.0,37.0,-100.00,NE,50,9.0,15.0,25,-99.99,,,-99.99,,2013-05-02 17:52:00,
2013-05-02 14:01:00,76.0,39.0,-100.00,NNE,30,8.0,15.0,26,-99.99,,,-99.99,,2013-05-02 18:01:00,
2013-05-02 14:12:00,77.0,39.0,-100.00,ENE,75,5.0,13.0,26,-99.99,,,-99.99,,2013-05-02 18:12:00,
2013-05-02 14:22:00,76.0,40.0,-100.00,WSW,245,3.0,7.0,27,-99.99,,,-99.99,,2013-05-02 18:22:00,
2013-05-02 14:32:00,78.0,38.0,-100.00,North,5,3.0,10.0,24,-99.99,,,-99.99,,2013-05-02 18:32:00,
2013-05-02 14:42:00,77.0,39.0,-100.00,NE,35,7.0,14.0,26,-99.99,,,-99.99,,2013-05-02 18:42:00,
2013-05-02 14:52:00,77.0,39.0,-100.00,ENE,70,3.0,10.0,26,-99.99,,,-99.99,,2013-05-02 18:52:00,
2013-05-02 15:01:00,76.0,38.0,-100.00,NNE,25,5.0,9.0,26,-99.99,,,-99.99,,2013-05-02 19:01:00,
2013-05-02 15:11:00,78.0,37.0,-100.00,NNE,25,6.0,10.0,23,-99.99,,,-99.99,,2013-05-02 19:11:00,
2013-05-02 15:22:00,77.0,38.0,-100.00,East,80,5.0,9.0,24,-99.99,,,-99.99,,2013-05-02 19:22:00,
2013-05-02 15:32:00,78.0,37.0,-100.00,East,100,5.0,13.0,23,-99.99,,,-99.99,,2013-05-02 19:32:00,
2013-05-02 15:42:00,79.0,39.0,-100.00,ESE,110,3.0,13.0,24,-99.99,,,-99.99,,2013-05-02 19:42:00,
2013-05-02 15:52:00,77.0,39.0,-100.00,East,80,5.0,10.0,25,-99.99,,,-99.99,,2013-05-02 19:52:00,
2013-05-02 16:02:00,78.0,38.0,-100.00,East,100,3.0,15.0,24,-99.99,,,-99.99,,2013-05-02 20:02:00,
2013-05-02 16:11:00,76.0,38.0,-100.00,East,90,2.0,12.0,25,-99.99,,,-99.99,,2013-05-02 20:11:00,
2013-05-02 16:22:00,76.0,38.0,-100.00,East,95,2.0,10.0,26,-99.99,,,-99.99,,2013-05-02 20:22:00,
2013-05-02 16:32:00,75.0,39.0,-100.00,SE,140,5.0,13.0,27,-99.99,,,-99.99,,2013-05-02 20:32:00,
2013-05-02 16:42:00,74.0,38.0,-100.00,South,180,6.0,13.0,27,-99.99,,,-99.99,,2013-05-02 20:42:00,
2013-05-02 16:52:00,77.0,38.0,-100.00,SE,145,3.0,12.0,25,-99.99,,,-99.99,,2013-05-02 20:52:00,
2013-05-02 17:01:00,77.0,37.0,-100.00,East,90,5.0,15.0,24,-99.99,,,-99.99,,2013-05-02 21:01:00,
2013-05-02 17:12:00,76.0,38.0,-100.00,SE,140,6.0,14.0,26,-99.99,,,-99.99,,2013-05-02 21:12:00,
2013-05-02 17:21:00,75.0,39.0,-100.00,SSE,160,8.0,15.0,27,-99.99,,,-99.99,,2013-05-02 21:21:00,
2013-05-02 17:33:00,74.0,38.0,-100.00,SSE,155,8.0,16.0,27,-99.99,,,-99.99,,2013-05-02 21:33:00,
2013-05-02 17:42:00,72.0,37.0,-100.00,East,90,8.0,15.0,28,-99.99,,,-99.99,,2013-05-02 21:42:00,
2013-05-02 17:53:00,68.0,36.0,-100.00,East,90,7.0,21.0,31,-99.99,,,-99.99,,2013-05-02 21:53:00,
2013-05-02 18:03:00,67.0,37.0,-100.00,ENE,70,7.0,17.0,33,-99.99,,,-99.99,,2013-05-02 22:03:00,
2013-05-02 18:13:00,67.0,39.0,-100.00,East,80,6.0,16.0,37,-99.99,,,-99.99,,2013-05-02 22:13:00,
2013-05-02 18:22:00,67.0,39.0,-100.00,East,80,6.0,16.0,37,-99.99,,,-99.99,,2013-05-02 22:22:00,
2013-05-02 18:32:00,62.0,42.0,-100.00,ENE,65,9.0,21.0,47,-99.99,,,-99.99,,2013-05-02 22:32:00,
2013-05-02 18:42:00,62.0,41.0,-100.00,ENE,75,7.0,17.0,47,-99.99,,,-99.99,,2013-05-02 22:42:00,
2013-05-02 18:52:00,62.0,41.0,-100.00,ENE,75,7.0,17.0,47,-99.99,,,-99.99,,2013-05-02 22:52:00,
2013-05-02 19:02:00,60.0,42.0,-100.00,ENE,70,8.0,17.0,51,-99.99,,,-99.99,,2013-05-02 23:02:00,
2013-05-02 19:12:00,59.0,41.0,-100.00,ENE,60,5.0,16.0,51,-99.99,,,-99.99,,2013-05-02 23:12:00,
2013-05-02 19:22:00,58.0,40.0,-100.00,East,90,5.0,15.0,51,-99.99,,,-99.99,,2013-05-02 23:22:00,
2013-05-02 19:32:00,58.0,39.0,-100.00,ENE,70,6.0,13.0,50,-99.99,,,-99.99,,2013-05-02 23:32:00,
2013-05-02 19:42:00,57.0,40.0,-100.00,ENE,70,8.0,14.0,53,-99.99,,,-99.99,,2013-05-02 23:42:00,
2013-05-02 19:51:00,56.0,39.0,-100.00,ENE,70,6.0,14.0,52,-99.99,,,-99.99,,2013-05-02 23:51:00,
2013-05-02 20:01:00,55.0,40.0,-100.00,ENE,60,13.0,22.0,55,-99.99,,,-99.99,,2013-05-03 00:01:00,
2013-05-02 20:11:00,54.0,40.0,-100.00,ENE,75,7.0,14.0,58,-99.99,,,-99.99,,2013-05-03 00:11:00,
2013-05-02 20:22:00,54.0,40.0,-100.00,ENE,75,6.0,15.0,61,-99.99,,,-99.99,,2013-05-03 00:22:00,
2013-05-02 20:32:00,54.0,40.0,-100.00,ENE,75,6.0,15.0,61,-99.99,,,-99.99,,2013-05-03 00:32:00,
2013-05-02 20:42:00,53.0,43.0,-100.00,ENE,70,6.0,14.0,68,-99.99,,,-99.99,,2013-05-03 00:42:00,
2013-05-02 20:52:00,53.0,43.0,-100.00,NE,45,7.0,12.0,69,-99.99,,,-99.99,,2013-05-03 00:52:00,
2013-05-02 21:01:00,52.0,39.0,-100.00,East,85,5.0,13.0,61,-99.99,,,-99.99,,2013-05-03 01:01:00,
2013-05-02 21:11:00,51.0,37.0,-100.00,ENE,65,8.0,15.0,58,-99.99,,,-99.99,,2013-05-03 01:11:00,
2013-05-02 21:21:00,51.0,38.0,-100.00,ENE,60,9.0,17.0,60,-99.99,,,-99.99,,2013-05-03 01:21:00,
2013-05-02 21:32:00,50.0,39.0,-100.00,NE,55,7.0,16.0,65,-99.99,,,-99.99,,2013-05-03 01:32:00,
2013-05-02 21:42:00,50.0,39.0,-100.00,NE,45,3.0,13.0,66,-99.99,,,-99.99,,2013-05-03 01:42:00,
2013-05-02 21:52:00,50.0,39.0,-100.00,NE,50,3.0,12.0,66,-99.99,,,-99.99,,2013-05-03 01:52:00,
2013-05-02 22:02:00,50.0,39.0,-100.00,ENE,70,2.0,9.0,64,-99.99,,,-99.99,,2013-05-03 02:02:00,
2013-05-02 22:11:00,50.0,38.0,-100.00,NE,50,1.0,5.0,64,-99.99,,,-99.99,,2013-05-03 02:11:00,
2013-05-02 22:22:00,50.0,39.0,-100.00,ENE,65,1.0,7.0,64,-99.99,,,-99.99,,2013-05-03 02:22:00,
2013-05-02 22:32:00,51.0,38.0,-100.00,East,90,2.0,7.0,62,-99.99,,,-99.99,,2013-05-03 02:32:00,
2013-05-02 22:42:00,50.0,38.0,-100.00,ESE,110,1.0,3.0,63,-99.99,,,-99.99,,2013-05-03 02:42:00,
2013-05-02 22:52:00,50.0,38.0,-100.00,ESE,110,1.0,3.0,63,-99.99,,,-99.99,,2013-05-03 02:52:00,
2013-05-02 23:01:00,50.0,39.0,-100.00,ENE,70,2.0,6.0,64,-99.99,,,-99.99,,2013-05-03 03:01:00,
2013-05-02 23:10:00,48.0,38.0,-100.00,NNE,20,2.0,3.0,68,-99.99,,,-99.99,,2013-05-03 03:10:00,
2013-05-02 23:11:00,50.0,38.0,-100.00,NNE,20,3.0,7.0,63,-99.99,,,-99.99,,2013-05-03 03:11:00,
2013-05-02 23:21:00,50.0,38.0,-100.00,NE,40,1.0,5.0,64,-99.99,,,-99.99,,2013-05-03 03:21:00,
2013-05-02 23:33:00,49.0,38.0,-100.00,North,5,2.0,5.0,65,-99.99,,,-99.99,,2013-05-03 03:33:00,
2013-05-02 23:43:00,49.0,38.0,-100.00,NNE,15,1.0,2.0,67,-99.99,,,-99.99,,2013-05-03 03:43:00,
2013-05-02 23:53:00,48.0,38.0,-100.00,NNE,20,2.0,3.0,68,-99.99,,,-99.99,,2013-05-03 03:53:00,